sensor_id;sensor_type;location;lat;lon;timestamp;P1;durP1;ratioP1;P2;durP2;ratioP2
3257;SDS011;1641;51.306;12.384;2022-12-11T00:01:49;21.42;;;10.55;;
3257;SDS011;1641;51.306;12.384;2022-12-11T00:04:14;16.80;;;9.85;;
3257;SDS011;1641;51.306;12.384;2022-12-11T00:06:40;21.73;;;10.88;;
3257;SDS011;1641;51.306;12.384;2022-12-11T00:09:06;18.33;;;11.43;;
3257;SDS011;1641;51.306;12.384;2022-12-11T00:11:31;20.30;;;11.07;;
3257;SDS011;1641;51.306;12.384;2022-12-11T00:13:57;20.17;;;10.98;;
3257;SDS011;1641;51.306;12.384;2022-12-11T00:16:22;7.22;;;4.88;;
3257;SDS011;1641;51.306;12.384;2022-12-11T00:18:48;11.52;;;6.35;;
3257;SDS011;1641;51.306;12.384;2022-12-11T00:21:13;13.40;;;8.27;;
3257;SDS011;1641;51.306;12.384;2022-12-11T00:23:39;15.77;;;9.13;;
3257;SDS011;1641;51.306;12.384;2022-12-11T00:26:06;16.67;;;9.82;;
3257;SDS011;1641;51.306;12.384;2022-12-11T00:28:33;15.57;;;9.30;;
3257;SDS011;1641;51.306;12.384;2022-12-11T00:30:58;14.80;;;8.60;;
3257;SDS011;1641;51.306;12.384;2022-12-11T00:33:28;17.45;;;8.98;;
3257;SDS011;1641;51.306;12.384;2022-12-11T00:35:53;16.67;;;9.70;;
3257;SDS011;1641;51.306;12.384;2022-12-11T00:38:19;14.52;;;9.30;;
3257;SDS011;1641;51.306;12.384;2022-12-11T00:40:46;15.35;;;10.20;;
3257;SDS011;1641;51.306;12.384;2022-12-11T00:43:11;15.27;;;9.48;;
3257;SDS011;1641;51.306;12.384;2022-12-11T00:45:41;13.25;;;8.98;;
3257;SDS011;1641;51.306;12.384;2022-12-11T00:48:08;15.77;;;9.48;;
3257;SDS011;1641;51.306;12.384;2022-12-11T00:50:34;13.25;;;8.82;;
3257;SDS011;1641;51.306;12.384;2022-12-11T00:53:00;18.00;;;10.95;;
3257;SDS011;1641;51.306;12.384;2022-12-11T00:55:26;17.10;;;9.75;;
3257;SDS011;1641;51.306;12.384;2022-12-11T00:57:53;14.55;;;9.38;;
3257;SDS011;1641;51.306;12.384;2022-12-11T01:00:18;16.95;;;9.68;;
3257;SDS011;1641;51.306;12.384;2022-12-11T01:02:44;17.63;;;9.00;;
3257;SDS011;1641;51.306;12.384;2022-12-11T01:05:09;13.55;;;8.07;;
3257;SDS011;1641;51.306;12.384;2022-12-11T01:07:35;18.52;;;11.05;;
3257;SDS011;1641;51.306;12.384;2022-12-11T01:10:00;15.13;;;10.00;;
3257;SDS011;1641;51.306;12.384;2022-12-11T01:12:45;14.05;;;9.25;;
3257;SDS011;1641;51.306;12.384;2022-12-11T01:15:10;14.95;;;9.85;;
3257;SDS011;1641;51.306;12.384;2022-12-11T01:17:36;15.68;;;9.45;;
3257;SDS011;1641;51.306;12.384;2022-12-11T01:20:02;15.90;;;10.00;;
3257;SDS011;1641;51.306;12.384;2022-12-11T01:22:28;14.38;;;9.80;;
3257;SDS011;1641;51.306;12.384;2022-12-11T01:24:54;14.73;;;9.23;;
3257;SDS011;1641;51.306;12.384;2022-12-11T01:27:19;13.00;;;9.30;;
3257;SDS011;1641;51.306;12.384;2022-12-11T01:29:44;16.85;;;10.85;;
3257;SDS011;1641;51.306;12.384;2022-12-11T01:32:10;16.30;;;10.85;;
3257;SDS011;1641;51.306;12.384;2022-12-11T01:34:35;19.70;;;10.65;;
3257;SDS011;1641;51.306;12.384;2022-12-11T01:37:00;17.80;;;10.10;;
3257;SDS011;1641;51.306;12.384;2022-12-11T01:39:25;17.00;;;9.52;;
3257;SDS011;1641;51.306;12.384;2022-12-11T01:41:55;16.17;;;9.93;;
3257;SDS011;1641;51.306;12.384;2022-12-11T01:46:46;19.58;;;10.75;;
3257;SDS011;1641;51.306;12.384;2022-12-11T01:49:12;21.40;;;11.15;;
3257;SDS011;1641;51.306;12.384;2022-12-11T01:51:54;20.17;;;11.30;;
3257;SDS011;1641;51.306;12.384;2022-12-11T01:54:23;17.08;;;9.63;;
3257;SDS011;1641;51.306;12.384;2022-12-11T01:56:51;21.90;;;10.73;;
3257;SDS011;1641;51.306;12.384;2022-12-11T01:59:20;18.02;;;11.05;;
3257;SDS011;1641;51.306;12.384;2022-12-11T02:01:56;16.98;;;9.68;;
3257;SDS011;1641;51.306;12.384;2022-12-11T02:04:25;14.05;;;9.45;;
3257;SDS011;1641;51.306;12.384;2022-12-11T02:06:51;22.10;;;10.85;;
3257;SDS011;1641;51.306;12.384;2022-12-11T02:09:24;18.92;;;10.77;;
3257;SDS011;1641;51.306;12.384;2022-12-11T02:17:28;19.05;;;10.40;;
3257;SDS011;1641;51.306;12.384;2022-12-11T02:20:09;16.17;;;10.32;;
3257;SDS011;1641;51.306;12.384;2022-12-11T02:28:25;16.60;;;9.93;;
3257;SDS011;1641;51.306;12.384;2022-12-11T02:30:55;18.23;;;11.73;;
3257;SDS011;1641;51.306;12.384;2022-12-11T02:33:28;17.15;;;10.10;;
3257;SDS011;1641;51.306;12.384;2022-12-11T02:36:01;16.70;;;10.57;;
3257;SDS011;1641;51.306;12.384;2022-12-11T02:38:30;18.85;;;10.73;;
3257;SDS011;1641;51.306;12.384;2022-12-11T02:40:59;18.02;;;10.95;;
3257;SDS011;1641;51.306;12.384;2022-12-11T02:43:26;20.10;;;11.32;;
3257;SDS011;1641;51.306;12.384;2022-12-11T02:45:54;16.42;;;10.18;;
3257;SDS011;1641;51.306;12.384;2022-12-11T02:48:21;31.02;;;11.80;;
3257;SDS011;1641;51.306;12.384;2022-12-11T02:50:48;16.63;;;11.43;;
3257;SDS011;1641;51.306;12.384;2022-12-11T02:53:19;15.20;;;10.00;;
3257;SDS011;1641;51.306;12.384;2022-12-11T02:55:49;18.65;;;10.57;;
3257;SDS011;1641;51.306;12.384;2022-12-11T02:58:22;16.13;;;9.43;;
3257;SDS011;1641;51.306;12.384;2022-12-11T03:00:51;16.98;;;10.85;;
3257;SDS011;1641;51.306;12.384;2022-12-11T03:03:16;16.88;;;9.75;;
3257;SDS011;1641;51.306;12.384;2022-12-11T03:05:42;18.52;;;10.45;;
3257;SDS011;1641;51.306;12.384;2022-12-11T03:08:10;19.00;;;10.38;;
3257;SDS011;1641;51.306;12.384;2022-12-11T03:10:35;16.77;;;10.18;;
3257;SDS011;1641;51.306;12.384;2022-12-11T03:13:00;21.08;;;11.63;;
3257;SDS011;1641;51.306;12.384;2022-12-11T03:15:32;16.80;;;10.20;;
3257;SDS011;1641;51.306;12.384;2022-12-11T03:18:15;17.23;;;10.60;;
3257;SDS011;1641;51.306;12.384;2022-12-11T03:20:54;17.17;;;10.57;;
3257;SDS011;1641;51.306;12.384;2022-12-11T03:23:30;17.58;;;10.15;;
3257;SDS011;1641;51.306;12.384;2022-12-11T03:26:05;18.10;;;11.10;;
3257;SDS011;1641;51.306;12.384;2022-12-11T03:28:46;20.45;;;11.40;;
3257;SDS011;1641;51.306;12.384;2022-12-11T03:33:59;16.52;;;10.57;;
3257;SDS011;1641;51.306;12.384;2022-12-11T03:36:32;17.08;;;10.07;;
3257;SDS011;1641;51.306;12.384;2022-12-11T03:39:01;16.83;;;9.32;;
3257;SDS011;1641;51.306;12.384;2022-12-11T03:41:31;15.55;;;10.50;;
3257;SDS011;1641;51.306;12.384;2022-12-11T03:43:59;15.57;;;10.13;;
3257;SDS011;1641;51.306;12.384;2022-12-11T03:46:31;15.93;;;9.50;;
3257;SDS011;1641;51.306;12.384;2022-12-11T03:49:01;18.42;;;10.85;;
3257;SDS011;1641;51.306;12.384;2022-12-11T03:51:30;14.20;;;8.27;;
3257;SDS011;1641;51.306;12.384;2022-12-11T03:53:57;14.90;;;9.23;;
3257;SDS011;1641;51.306;12.384;2022-12-11T03:56:24;17.13;;;9.73;;
3257;SDS011;1641;51.306;12.384;2022-12-11T03:58:51;14.25;;;10.38;;
3257;SDS011;1641;51.306;12.384;2022-12-11T04:01:16;17.35;;;10.50;;
3257;SDS011;1641;51.306;12.384;2022-12-11T04:03:42;15.88;;;9.90;;
3257;SDS011;1641;51.306;12.384;2022-12-11T04:06:07;16.80;;;10.55;;
3257;SDS011;1641;51.306;12.384;2022-12-11T04:08:32;15.43;;;10.90;;
3257;SDS011;1641;51.306;12.384;2022-12-11T04:10:57;12.55;;;7.28;;
3257;SDS011;1641;51.306;12.384;2022-12-11T04:13:42;13.60;;;9.63;;
3257;SDS011;1641;51.306;12.384;2022-12-11T04:16:07;15.13;;;9.50;;
3257;SDS011;1641;51.306;12.384;2022-12-11T04:18:33;13.73;;;8.48;;
3257;SDS011;1641;51.306;12.384;2022-12-11T04:21:17;15.20;;;9.65;;
3257;SDS011;1641;51.306;12.384;2022-12-11T04:24:00;13.25;;;8.93;;
3257;SDS011;1641;51.306;12.384;2022-12-11T04:26:42;18.63;;;10.93;;
3257;SDS011;1641;51.306;12.384;2022-12-11T04:29:08;16.27;;;8.88;;
3257;SDS011;1641;51.306;12.384;2022-12-11T04:31:33;14.65;;;9.63;;
3257;SDS011;1641;51.306;12.384;2022-12-11T04:33:59;14.90;;;9.57;;
3257;SDS011;1641;51.306;12.384;2022-12-11T04:36:24;15.27;;;9.45;;
3257;SDS011;1641;51.306;12.384;2022-12-11T04:38:49;15.63;;;10.57;;
3257;SDS011;1641;51.306;12.384;2022-12-11T04:41:15;15.85;;;10.63;;
3257;SDS011;1641;51.306;12.384;2022-12-11T04:43:40;16.10;;;10.13;;
3257;SDS011;1641;51.306;12.384;2022-12-11T04:48:36;21.27;;;10.65;;
3257;SDS011;1641;51.306;12.384;2022-12-11T04:51:02;16.15;;;10.20;;
3257;SDS011;1641;51.306;12.384;2022-12-11T04:53:28;17.92;;;9.57;;
3257;SDS011;1641;51.306;12.384;2022-12-11T04:55:53;14.65;;;9.50;;
3257;SDS011;1641;51.306;12.384;2022-12-11T04:58:19;14.93;;;9.75;;
3257;SDS011;1641;51.306;12.384;2022-12-11T05:00:44;17.10;;;10.35;;
3257;SDS011;1641;51.306;12.384;2022-12-11T05:03:10;13.90;;;9.48;;
3257;SDS011;1641;51.306;12.384;2022-12-11T05:05:35;14.93;;;10.80;;
3257;SDS011;1641;51.306;12.384;2022-12-11T05:08:01;12.05;;;7.95;;
3257;SDS011;1641;51.306;12.384;2022-12-11T05:10:26;14.02;;;8.63;;
3257;SDS011;1641;51.306;12.384;2022-12-11T05:12:51;14.10;;;9.32;;
3257;SDS011;1641;51.306;12.384;2022-12-11T05:15:16;13.68;;;9.50;;
3257;SDS011;1641;51.306;12.384;2022-12-11T05:17:42;14.13;;;9.23;;
3257;SDS011;1641;51.306;12.384;2022-12-11T05:20:07;13.40;;;8.80;;
3257;SDS011;1641;51.306;12.384;2022-12-11T05:22:33;11.98;;;8.80;;
3257;SDS011;1641;51.306;12.384;2022-12-11T05:24:59;8.65;;;5.95;;
3257;SDS011;1641;51.306;12.384;2022-12-11T05:27:24;10.93;;;7.88;;
3257;SDS011;1641;51.306;12.384;2022-12-11T05:29:49;9.85;;;7.32;;
3257;SDS011;1641;51.306;12.384;2022-12-11T05:32:15;11.80;;;9.07;;
3257;SDS011;1641;51.306;12.384;2022-12-11T05:34:40;11.90;;;8.77;;
3257;SDS011;1641;51.306;12.384;2022-12-11T05:37:05;13.93;;;9.15;;
3257;SDS011;1641;51.306;12.384;2022-12-11T05:39:30;12.55;;;9.20;;
3257;SDS011;1641;51.306;12.384;2022-12-11T05:41:56;10.75;;;7.85;;
3257;SDS011;1641;51.306;12.384;2022-12-11T05:44:21;12.70;;;8.90;;
3257;SDS011;1641;51.306;12.384;2022-12-11T05:46:47;12.80;;;9.00;;
3257;SDS011;1641;51.306;12.384;2022-12-11T05:49:13;8.63;;;5.63;;
3257;SDS011;1641;51.306;12.384;2022-12-11T05:51:39;13.80;;;8.48;;
3257;SDS011;1641;51.306;12.384;2022-12-11T05:54:05;12.13;;;8.25;;
3257;SDS011;1641;51.306;12.384;2022-12-11T05:56:31;13.32;;;8.38;;
3257;SDS011;1641;51.306;12.384;2022-12-11T05:59:01;13.43;;;8.52;;
3257;SDS011;1641;51.306;12.384;2022-12-11T06:01:29;12.50;;;8.35;;
3257;SDS011;1641;51.306;12.384;2022-12-11T06:03:59;7.75;;;5.80;;
3257;SDS011;1641;51.306;12.384;2022-12-11T06:06:26;12.50;;;8.80;;
3257;SDS011;1641;51.306;12.384;2022-12-11T06:08:52;12.05;;;7.95;;
3257;SDS011;1641;51.306;12.384;2022-12-11T06:11:19;12.18;;;7.88;;
3257;SDS011;1641;51.306;12.384;2022-12-11T06:13:45;11.80;;;8.38;;
3257;SDS011;1641;51.306;12.384;2022-12-11T06:16:10;11.82;;;8.45;;
3257;SDS011;1641;51.306;12.384;2022-12-11T06:18:37;13.05;;;9.43;;
3257;SDS011;1641;51.306;12.384;2022-12-11T06:21:13;10.10;;;7.45;;
3257;SDS011;1641;51.306;12.384;2022-12-11T06:23:43;11.75;;;6.32;;
3257;SDS011;1641;51.306;12.384;2022-12-11T06:26:10;10.27;;;7.82;;
3257;SDS011;1641;51.306;12.384;2022-12-11T06:28:35;11.40;;;8.07;;
3257;SDS011;1641;51.306;12.384;2022-12-11T06:31:01;10.63;;;7.32;;
3257;SDS011;1641;51.306;12.384;2022-12-11T06:33:27;10.73;;;7.32;;
3257;SDS011;1641;51.306;12.384;2022-12-11T06:35:59;14.68;;;8.05;;
3257;SDS011;1641;51.306;12.384;2022-12-11T06:38:28;10.50;;;7.20;;
3257;SDS011;1641;51.306;12.384;2022-12-11T06:40:57;12.15;;;7.68;;
3257;SDS011;1641;51.306;12.384;2022-12-11T06:43:23;11.00;;;6.75;;
3257;SDS011;1641;51.306;12.384;2022-12-11T06:45:49;12.93;;;7.00;;
3257;SDS011;1641;51.306;12.384;2022-12-11T06:48:15;12.32;;;7.35;;
3257;SDS011;1641;51.306;12.384;2022-12-11T06:50:41;12.50;;;7.25;;
3257;SDS011;1641;51.306;12.384;2022-12-11T06:53:06;13.98;;;7.18;;
3257;SDS011;1641;51.306;12.384;2022-12-11T06:55:34;12.32;;;7.50;;
3257;SDS011;1641;51.306;12.384;2022-12-11T06:58:00;9.55;;;6.45;;
3257;SDS011;1641;51.306;12.384;2022-12-11T07:00:25;12.15;;;7.38;;
3257;SDS011;1641;51.306;12.384;2022-12-11T07:02:51;11.50;;;7.25;;
3257;SDS011;1641;51.306;12.384;2022-12-11T07:05:16;11.10;;;7.45;;
3257;SDS011;1641;51.306;12.384;2022-12-11T07:07:45;9.10;;;6.75;;
3257;SDS011;1641;51.306;12.384;2022-12-11T07:10:10;11.63;;;7.28;;
3257;SDS011;1641;51.306;12.384;2022-12-11T07:12:36;12.88;;;7.10;;
3257;SDS011;1641;51.306;12.384;2022-12-11T07:15:02;12.80;;;7.28;;
3257;SDS011;1641;51.306;12.384;2022-12-11T07:17:30;11.50;;;7.22;;
3257;SDS011;1641;51.306;12.384;2022-12-11T07:19:56;10.23;;;6.95;;
3257;SDS011;1641;51.306;12.384;2022-12-11T07:22:21;11.98;;;7.45;;
3257;SDS011;1641;51.306;12.384;2022-12-11T07:24:47;16.00;;;7.35;;
3257;SDS011;1641;51.306;12.384;2022-12-11T07:27:12;12.63;;;6.60;;
3257;SDS011;1641;51.306;12.384;2022-12-11T07:29:37;12.10;;;7.07;;
3257;SDS011;1641;51.306;12.384;2022-12-11T07:32:12;9.10;;;6.25;;
3257;SDS011;1641;51.306;12.384;2022-12-11T07:34:41;10.05;;;6.85;;
3257;SDS011;1641;51.306;12.384;2022-12-11T07:37:06;12.32;;;7.55;;
3257;SDS011;1641;51.306;12.384;2022-12-11T07:39:32;12.23;;;6.68;;
3257;SDS011;1641;51.306;12.384;2022-12-11T07:41:57;12.85;;;8.52;;
3257;SDS011;1641;51.306;12.384;2022-12-11T07:44:23;13.93;;;6.82;;
3257;SDS011;1641;51.306;12.384;2022-12-11T07:46:57;9.15;;;6.55;;
3257;SDS011;1641;51.306;12.384;2022-12-11T07:49:23;10.15;;;7.00;;
3257;SDS011;1641;51.306;12.384;2022-12-11T07:51:48;13.43;;;6.95;;
3257;SDS011;1641;51.306;12.384;2022-12-11T07:54:16;11.20;;;7.82;;
3257;SDS011;1641;51.306;12.384;2022-12-11T07:56:46;11.63;;;7.35;;
3257;SDS011;1641;51.306;12.384;2022-12-11T07:59:12;10.68;;;7.05;;
3257;SDS011;1641;51.306;12.384;2022-12-11T08:01:38;14.40;;;7.82;;
3257;SDS011;1641;51.306;12.384;2022-12-11T08:04:08;11.43;;;7.25;;
3257;SDS011;1641;51.306;12.384;2022-12-11T08:06:36;11.43;;;7.65;;
3257;SDS011;1641;51.306;12.384;2022-12-11T08:09:03;12.43;;;7.90;;
3257;SDS011;1641;51.306;12.384;2022-12-11T08:11:30;14.52;;;8.27;;
3257;SDS011;1641;51.306;12.384;2022-12-11T08:13:57;15.05;;;8.63;;
3257;SDS011;1641;51.306;12.384;2022-12-11T08:16:26;14.93;;;8.95;;
3257;SDS011;1641;51.306;12.384;2022-12-11T08:18:58;13.15;;;8.63;;
3257;SDS011;1641;51.306;12.384;2022-12-11T08:21:24;15.60;;;8.13;;
3257;SDS011;1641;51.306;12.384;2022-12-11T08:23:51;16.77;;;8.77;;
3257;SDS011;1641;51.306;12.384;2022-12-11T08:26:19;13.98;;;8.48;;
3257;SDS011;1641;51.306;12.384;2022-12-11T08:28:46;11.25;;;6.57;;
3257;SDS011;1641;51.306;12.384;2022-12-11T08:31:16;15.88;;;9.05;;
3257;SDS011;1641;51.306;12.384;2022-12-11T08:33:42;11.93;;;8.07;;
3257;SDS011;1641;51.306;12.384;2022-12-11T08:36:10;15.07;;;8.40;;
3257;SDS011;1641;51.306;12.384;2022-12-11T08:38:40;16.58;;;9.20;;
3257;SDS011;1641;51.306;12.384;2022-12-11T08:43:41;14.93;;;8.38;;
3257;SDS011;1641;51.306;12.384;2022-12-11T08:46:07;15.90;;;8.43;;
3257;SDS011;1641;51.306;12.384;2022-12-11T08:48:36;13.57;;;8.90;;
3257;SDS011;1641;51.306;12.384;2022-12-11T08:51:03;17.97;;;10.27;;
3257;SDS011;1641;51.306;12.384;2022-12-11T08:53:31;12.93;;;8.25;;
3257;SDS011;1641;51.306;12.384;2022-12-11T08:56:00;14.98;;;9.32;;
3257;SDS011;1641;51.306;12.384;2022-12-11T08:58:26;13.57;;;8.77;;
3257;SDS011;1641;51.306;12.384;2022-12-11T09:00:52;14.55;;;8.60;;
3257;SDS011;1641;51.306;12.384;2022-12-11T09:03:17;16.02;;;9.35;;
3257;SDS011;1641;51.306;12.384;2022-12-11T09:05:43;15.13;;;9.18;;
3257;SDS011;1641;51.306;12.384;2022-12-11T09:08:09;13.55;;;7.65;;
3257;SDS011;1641;51.306;12.384;2022-12-11T09:10:34;16.23;;;10.48;;
3257;SDS011;1641;51.306;12.384;2022-12-11T09:13:00;14.57;;;8.88;;
3257;SDS011;1641;51.306;12.384;2022-12-11T09:15:25;12.65;;;8.60;;
3257;SDS011;1641;51.306;12.384;2022-12-11T09:17:50;15.30;;;9.18;;
3257;SDS011;1641;51.306;12.384;2022-12-11T09:20:15;15.02;;;8.88;;
3257;SDS011;1641;51.306;12.384;2022-12-11T09:22:41;15.98;;;9.45;;
3257;SDS011;1641;51.306;12.384;2022-12-11T09:25:07;15.95;;;9.63;;
3257;SDS011;1641;51.306;12.384;2022-12-11T09:27:33;13.43;;;8.50;;
3257;SDS011;1641;51.306;12.384;2022-12-11T09:29:59;13.40;;;8.38;;
3257;SDS011;1641;51.306;12.384;2022-12-11T09:32:24;14.95;;;9.43;;
3257;SDS011;1641;51.306;12.384;2022-12-11T09:34:50;13.15;;;8.32;;
3257;SDS011;1641;51.306;12.384;2022-12-11T09:37:15;15.73;;;8.77;;
3257;SDS011;1641;51.306;12.384;2022-12-11T09:39:41;13.90;;;9.38;;
3257;SDS011;1641;51.306;12.384;2022-12-11T09:42:09;14.88;;;8.50;;
3257;SDS011;1641;51.306;12.384;2022-12-11T09:47:20;15.55;;;8.98;;
3257;SDS011;1641;51.306;12.384;2022-12-11T09:49:50;13.90;;;8.85;;
3257;SDS011;1641;51.306;12.384;2022-12-11T09:55:02;14.05;;;8.80;;
3257;SDS011;1641;51.306;12.384;2022-12-11T09:57:47;15.25;;;9.48;;
3257;SDS011;1641;51.306;12.384;2022-12-11T10:00:40;15.52;;;9.82;;
3257;SDS011;1641;51.306;12.384;2022-12-11T10:03:21;15.82;;;8.15;;
3257;SDS011;1641;51.306;12.384;2022-12-11T10:11:11;15.15;;;9.13;;
3257;SDS011;1641;51.306;12.384;2022-12-11T10:16:38;15.05;;;8.57;;
3257;SDS011;1641;51.306;12.384;2022-12-11T10:19:09;14.02;;;9.02;;
3257;SDS011;1641;51.306;12.384;2022-12-11T10:21:41;17.38;;;9.73;;
3257;SDS011;1641;51.306;12.384;2022-12-11T10:24:13;16.35;;;8.40;;
3257;SDS011;1641;51.306;12.384;2022-12-11T10:26:46;14.10;;;8.85;;
3257;SDS011;1641;51.306;12.384;2022-12-11T10:29:12;16.42;;;9.13;;
3257;SDS011;1641;51.306;12.384;2022-12-11T10:34:17;12.00;;;7.65;;
3257;SDS011;1641;51.306;12.384;2022-12-11T10:36:52;9.65;;;7.00;;
3257;SDS011;1641;51.306;12.384;2022-12-11T10:39:19;13.30;;;8.05;;
3257;SDS011;1641;51.306;12.384;2022-12-11T10:41:46;12.23;;;8.45;;
3257;SDS011;1641;51.306;12.384;2022-12-11T10:44:24;16.52;;;9.75;;
3257;SDS011;1641;51.306;12.384;2022-12-11T10:47:26;15.35;;;8.75;;
3257;SDS011;1641;51.306;12.384;2022-12-11T10:49:51;14.48;;;9.15;;
3257;SDS011;1641;51.306;12.384;2022-12-11T10:52:26;14.07;;;8.75;;
3257;SDS011;1641;51.306;12.384;2022-12-11T10:55:00;11.05;;;6.80;;
3257;SDS011;1641;51.306;12.384;2022-12-11T10:57:36;16.38;;;9.20;;
3257;SDS011;1641;51.306;12.384;2022-12-11T11:00:06;15.60;;;8.95;;
3257;SDS011;1641;51.306;12.384;2022-12-11T11:02:51;14.00;;;8.60;;
3257;SDS011;1641;51.306;12.384;2022-12-11T11:08:13;13.85;;;7.95;;
3257;SDS011;1641;51.306;12.384;2022-12-11T11:10:50;15.48;;;9.07;;
3257;SDS011;1641;51.306;12.384;2022-12-11T11:13:24;15.50;;;8.98;;
3257;SDS011;1641;51.306;12.384;2022-12-11T11:15:58;15.43;;;9.60;;
3257;SDS011;1641;51.306;12.384;2022-12-11T11:18:27;16.45;;;9.55;;
3257;SDS011;1641;51.306;12.384;2022-12-11T11:20:54;16.00;;;8.80;;
3257;SDS011;1641;51.306;12.384;2022-12-11T11:23:20;14.80;;;9.95;;
3257;SDS011;1641;51.306;12.384;2022-12-11T11:25:53;11.32;;;8.32;;
3257;SDS011;1641;51.306;12.384;2022-12-11T11:28:33;13.95;;;8.52;;
3257;SDS011;1641;51.306;12.384;2022-12-11T11:33:33;16.60;;;8.45;;
3257;SDS011;1641;51.306;12.384;2022-12-11T11:36:01;16.20;;;8.35;;
3257;SDS011;1641;51.306;12.384;2022-12-11T11:41:16;15.50;;;8.30;;
3257;SDS011;1641;51.306;12.384;2022-12-11T11:43:50;14.20;;;8.15;;
3257;SDS011;1641;51.306;12.384;2022-12-11T11:48:49;13.05;;;8.07;;
3257;SDS011;1641;51.306;12.384;2022-12-11T11:51:26;18.38;;;8.65;;
3257;SDS011;1641;51.306;12.384;2022-12-11T11:56:26;10.60;;;6.80;;
3257;SDS011;1641;51.306;12.384;2022-12-11T11:59:00;12.63;;;8.30;;
3257;SDS011;1641;51.306;12.384;2022-12-11T12:01:32;15.27;;;8.57;;
3257;SDS011;1641;51.306;12.384;2022-12-11T12:03:57;18.38;;;10.32;;
3257;SDS011;1641;51.306;12.384;2022-12-11T12:06:39;11.57;;;8.00;;
3257;SDS011;1641;51.306;12.384;2022-12-11T12:15:12;10.05;;;6.30;;
3257;SDS011;1641;51.306;12.384;2022-12-11T12:17:54;21.35;;;9.73;;
3257;SDS011;1641;51.306;12.384;2022-12-11T12:23:05;12.48;;;7.97;;
3257;SDS011;1641;51.306;12.384;2022-12-11T12:25:37;27.55;;;12.55;;
3257;SDS011;1641;51.306;12.384;2022-12-11T12:30:55;12.80;;;8.15;;
3257;SDS011;1641;51.306;12.384;2022-12-11T12:39:48;15.05;;;9.18;;
3257;SDS011;1641;51.306;12.384;2022-12-11T12:45:31;40.60;;;17.08;;
3257;SDS011;1641;51.306;12.384;2022-12-11T12:48:07;14.45;;;9.98;;
3257;SDS011;1641;51.306;12.384;2022-12-11T12:50:36;30.83;;;14.48;;
3257;SDS011;1641;51.306;12.384;2022-12-11T12:53:08;16.77;;;10.50;;
3257;SDS011;1641;51.306;12.384;2022-12-11T12:55:40;24.02;;;11.95;;
3257;SDS011;1641;51.306;12.384;2022-12-11T12:58:06;27.80;;;13.57;;
3257;SDS011;1641;51.306;12.384;2022-12-11T13:00:47;17.80;;;9.98;;
3257;SDS011;1641;51.306;12.384;2022-12-11T13:03:14;17.63;;;10.85;;
3257;SDS011;1641;51.306;12.384;2022-12-11T13:05:43;23.33;;;11.38;;
3257;SDS011;1641;51.306;12.384;2022-12-11T13:08:23;19.65;;;11.55;;
3257;SDS011;1641;51.306;12.384;2022-12-11T13:10:55;26.60;;;13.55;;
3257;SDS011;1641;51.306;12.384;2022-12-11T13:18:39;17.80;;;10.55;;
3257;SDS011;1641;51.306;12.384;2022-12-11T13:23:48;16.48;;;9.65;;
3257;SDS011;1641;51.306;12.384;2022-12-11T13:26:30;18.98;;;10.18;;
3257;SDS011;1641;51.306;12.384;2022-12-11T13:29:00;20.50;;;12.13;;
3257;SDS011;1641;51.306;12.384;2022-12-11T13:31:32;23.73;;;12.68;;
3257;SDS011;1641;51.306;12.384;2022-12-11T13:34:15;17.83;;;10.75;;
3257;SDS011;1641;51.306;12.384;2022-12-11T13:36:48;69.20;;;25.33;;
3257;SDS011;1641;51.306;12.384;2022-12-11T13:39:23;33.85;;;15.30;;
3257;SDS011;1641;51.306;12.384;2022-12-11T13:41:52;25.00;;;13.35;;
3257;SDS011;1641;51.306;12.384;2022-12-11T13:44:32;19.60;;;10.90;;
3257;SDS011;1641;51.306;12.384;2022-12-11T13:47:02;31.15;;;15.70;;
3257;SDS011;1641;51.306;12.384;2022-12-11T13:49:29;21.52;;;11.43;;
3257;SDS011;1641;51.306;12.384;2022-12-11T13:51:59;20.05;;;10.77;;
3257;SDS011;1641;51.306;12.384;2022-12-11T13:54:26;23.02;;;12.95;;
3257;SDS011;1641;51.306;12.384;2022-12-11T13:56:57;20.33;;;11.68;;
3257;SDS011;1641;51.306;12.384;2022-12-11T13:59:35;23.77;;;12.65;;
3257;SDS011;1641;51.306;12.384;2022-12-11T14:04:52;20.45;;;11.40;;
3257;SDS011;1641;51.306;12.384;2022-12-11T14:07:27;18.15;;;11.02;;
3257;SDS011;1641;51.306;12.384;2022-12-11T14:09:58;20.77;;;12.35;;
3257;SDS011;1641;51.306;12.384;2022-12-11T14:12:26;23.15;;;11.95;;
3257;SDS011;1641;51.306;12.384;2022-12-11T14:14:53;27.63;;;14.05;;
3257;SDS011;1641;51.306;12.384;2022-12-11T14:17:24;21.90;;;12.60;;
3257;SDS011;1641;51.306;12.384;2022-12-11T14:19:52;15.43;;;7.68;;
3257;SDS011;1641;51.306;12.384;2022-12-11T14:22:21;20.17;;;10.93;;
3257;SDS011;1641;51.306;12.384;2022-12-11T14:24:51;23.25;;;12.27;;
3257;SDS011;1641;51.306;12.384;2022-12-11T14:27:19;28.15;;;14.30;;
3257;SDS011;1641;51.306;12.384;2022-12-11T14:29:45;20.02;;;11.15;;
3257;SDS011;1641;51.306;12.384;2022-12-11T14:32:15;35.47;;;17.20;;
3257;SDS011;1641;51.306;12.384;2022-12-11T14:34:44;26.98;;;13.32;;
3257;SDS011;1641;51.306;12.384;2022-12-11T14:37:11;20.65;;;12.85;;
3257;SDS011;1641;51.306;12.384;2022-12-11T14:39:40;24.88;;;14.18;;
3257;SDS011;1641;51.306;12.384;2022-12-11T14:42:11;29.02;;;16.00;;
3257;SDS011;1641;51.306;12.384;2022-12-11T14:45:41;25.60;;;14.25;;
3257;SDS011;1641;51.306;12.384;2022-12-11T14:47:41;17.33;;;10.02;;
3257;SDS011;1641;51.306;12.384;2022-12-11T14:52:50;23.92;;;13.45;;
3257;SDS011;1641;51.306;12.384;2022-12-11T14:55:19;23.35;;;13.52;;
3257;SDS011;1641;51.306;12.384;2022-12-11T14:57:49;23.58;;;12.95;;
3257;SDS011;1641;51.306;12.384;2022-12-11T15:02:55;21.05;;;13.20;;
3257;SDS011;1641;51.306;12.384;2022-12-11T15:05:23;22.27;;;12.15;;
3257;SDS011;1641;51.306;12.384;2022-12-11T15:07:52;20.90;;;12.45;;
3257;SDS011;1641;51.306;12.384;2022-12-11T15:10:22;22.33;;;12.48;;
3257;SDS011;1641;51.306;12.384;2022-12-11T15:15:25;26.88;;;13.75;;
3257;SDS011;1641;51.306;12.384;2022-12-11T15:17:52;24.27;;;13.20;;
3257;SDS011;1641;51.306;12.384;2022-12-11T15:20:22;26.02;;;14.13;;
3257;SDS011;1641;51.306;12.384;2022-12-11T15:22:50;23.05;;;12.55;;
3257;SDS011;1641;51.306;12.384;2022-12-11T15:25:20;20.75;;;12.65;;
3257;SDS011;1641;51.306;12.384;2022-12-11T15:27:55;26.08;;;14.82;;
3257;SDS011;1641;51.306;12.384;2022-12-11T15:35:33;25.88;;;14.65;;
3257;SDS011;1641;51.306;12.384;2022-12-11T15:37:59;28.63;;;15.32;;
3257;SDS011;1641;51.306;12.384;2022-12-11T15:40:25;27.17;;;14.52;;
3257;SDS011;1641;51.306;12.384;2022-12-11T15:42:51;24.88;;;14.98;;
3257;SDS011;1641;51.306;12.384;2022-12-11T15:45:22;27.02;;;13.43;;
3257;SDS011;1641;51.306;12.384;2022-12-11T15:50:16;22.25;;;12.18;;
3257;SDS011;1641;51.306;12.384;2022-12-11T15:52:46;24.23;;;14.07;;
3257;SDS011;1641;51.306;12.384;2022-12-11T15:55:12;22.77;;;12.55;;
3257;SDS011;1641;51.306;12.384;2022-12-11T15:57:39;26.50;;;14.05;;
3257;SDS011;1641;51.306;12.384;2022-12-11T16:00:17;23.98;;;13.07;;
3257;SDS011;1641;51.306;12.384;2022-12-11T16:02:43;23.58;;;13.43;;
3257;SDS011;1641;51.306;12.384;2022-12-11T16:05:09;26.38;;;14.07;;
3257;SDS011;1641;51.306;12.384;2022-12-11T16:07:34;26.65;;;13.65;;
3257;SDS011;1641;51.306;12.384;2022-12-11T16:10:00;24.65;;;14.18;;
3257;SDS011;1641;51.306;12.384;2022-12-11T16:12:26;24.60;;;13.55;;
3257;SDS011;1641;51.306;12.384;2022-12-11T16:14:51;25.00;;;14.13;;
3257;SDS011;1641;51.306;12.384;2022-12-11T16:17:16;17.08;;;9.77;;
3257;SDS011;1641;51.306;12.384;2022-12-11T16:19:42;19.25;;;11.75;;
3257;SDS011;1641;51.306;12.384;2022-12-11T16:22:08;25.55;;;12.93;;
3257;SDS011;1641;51.306;12.384;2022-12-11T16:24:35;32.78;;;15.77;;
3257;SDS011;1641;51.306;12.384;2022-12-11T16:27:01;27.73;;;16.05;;
3257;SDS011;1641;51.306;12.384;2022-12-11T16:29:27;24.50;;;13.80;;
3257;SDS011;1641;51.306;12.384;2022-12-11T16:31:53;26.40;;;13.77;;